sensor_id;sensor_type;location;lat;lon;timestamp;P1;durP1;ratioP1;P2;durP2;ratioP2
7444;SDS011;3764;48.126;11.594;2024-03-22T00:01:54;18.30;;;13.90;;
7444;SDS011;3764;48.126;11.594;2024-03-22T00:04:22;19.38;;;14.35;;
7444;SDS011;3764;48.126;11.594;2024-03-22T00:06:51;21.80;;;14.70;;
7444;SDS011;3764;48.126;11.594;2024-03-22T00:09:20;19.98;;;15.35;;
7444;SDS011;3764;48.126;11.594;2024-03-22T00:11:46;20.67;;;15.35;;
7444;SDS011;3764;48.126;11.594;2024-03-22T00:14:14;21.30;;;16.05;;
7444;SDS011;3764;48.126;11.594;2024-03-22T00:16:41;20.10;;;14.52;;
7444;SDS011;3764;48.126;11.594;2024-03-22T00:19:09;22.10;;;15.02;;
7444;SDS011;3764;48.126;11.594;2024-03-22T00:21:36;19.17;;;14.85;;
7444;SDS011;3764;48.126;11.594;2024-03-22T00:24:03;19.67;;;13.95;;
7444;SDS011;3764;48.126;11.594;2024-03-22T00:26:30;20.95;;;14.70;;
7444;SDS011;3764;48.126;11.594;2024-03-22T00:28:57;18.45;;;14.18;;
7444;SDS011;3764;48.126;11.594;2024-03-22T00:31:24;21.67;;;14.20;;
7444;SDS011;3764;48.126;11.594;2024-03-22T00:33:53;21.67;;;14.23;;
7444;SDS011;3764;48.126;11.594;2024-03-22T00:36:19;18.73;;;14.48;;
7444;SDS011;3764;48.126;11.594;2024-03-22T00:38:47;18.85;;;13.75;;
7444;SDS011;3764;48.126;11.594;2024-03-22T00:41:13;21.35;;;12.90;;
7444;SDS011;3764;48.126;11.594;2024-03-22T00:43:40;17.25;;;13.75;;
7444;SDS011;3764;48.126;11.594;2024-03-22T00:46:07;19.35;;;14.48;;
7444;SDS011;3764;48.126;11.594;2024-03-22T00:48:34;17.38;;;13.30;;
7444;SDS011;3764;48.126;11.594;2024-03-22T00:51:03;21.98;;;15.10;;
7444;SDS011;3764;48.126;11.594;2024-03-22T00:53:30;18.23;;;13.50;;
7444;SDS011;3764;48.126;11.594;2024-03-22T00:55:57;19.58;;;13.27;;
7444;SDS011;3764;48.126;11.594;2024-03-22T00:58:26;17.88;;;13.98;;
7444;SDS011;3764;48.126;11.594;2024-03-22T01:00:53;20.58;;;14.48;;
7444;SDS011;3764;48.126;11.594;2024-03-22T01:03:20;18.20;;;12.70;;
7444;SDS011;3764;48.126;11.594;2024-03-22T01:05:46;18.52;;;13.95;;
7444;SDS011;3764;48.126;11.594;2024-03-22T01:08:15;17.95;;;13.43;;
7444;SDS011;3764;48.126;11.594;2024-03-22T01:10:42;17.67;;;12.98;;
7444;SDS011;3764;48.126;11.594;2024-03-22T01:13:09;18.08;;;13.48;;
7444;SDS011;3764;48.126;11.594;2024-03-22T01:15:36;17.63;;;12.63;;
7444;SDS011;3764;48.126;11.594;2024-03-22T01:18:03;18.95;;;12.75;;
7444;SDS011;3764;48.126;11.594;2024-03-22T01:20:30;22.17;;;14.40;;
7444;SDS011;3764;48.126;11.594;2024-03-22T01:22:58;16.65;;;12.60;;
7444;SDS011;3764;48.126;11.594;2024-03-22T01:25:26;17.92;;;13.10;;
7444;SDS011;3764;48.126;11.594;2024-03-22T01:27:54;20.58;;;14.48;;
7444;SDS011;3764;48.126;11.594;2024-03-22T01:30:21;21.40;;;14.30;;
7444;SDS011;3764;48.126;11.594;2024-03-22T01:32:49;20.85;;;13.20;;
7444;SDS011;3764;48.126;11.594;2024-03-22T01:35:15;17.85;;;13.65;;
7444;SDS011;3764;48.126;11.594;2024-03-22T01:37:43;17.50;;;13.00;;
7444;SDS011;3764;48.126;11.594;2024-03-22T01:40:10;20.00;;;12.55;;
7444;SDS011;3764;48.126;11.594;2024-03-22T01:42:39;19.95;;;14.45;;
7444;SDS011;3764;48.126;11.594;2024-03-22T01:45:06;17.15;;;12.13;;
7444;SDS011;3764;48.126;11.594;2024-03-22T01:47:34;17.23;;;13.35;;
7444;SDS011;3764;48.126;11.594;2024-03-22T01:50:00;20.75;;;13.68;;
7444;SDS011;3764;48.126;11.594;2024-03-22T01:52:28;19.73;;;13.90;;
7444;SDS011;3764;48.126;11.594;2024-03-22T01:54:55;16.42;;;11.98;;
7444;SDS011;3764;48.126;11.594;2024-03-22T01:57:22;16.38;;;11.60;;
7444;SDS011;3764;48.126;11.594;2024-03-22T01:59:51;18.67;;;13.15;;
7444;SDS011;3764;48.126;11.594;2024-03-22T02:02:22;18.52;;;12.75;;
7444;SDS011;3764;48.126;11.594;2024-03-22T02:04:50;18.55;;;13.07;;
7444;SDS011;3764;48.126;11.594;2024-03-22T02:07:17;18.45;;;12.95;;
7444;SDS011;3764;48.126;11.594;2024-03-22T02:09:44;17.02;;;12.27;;
7444;SDS011;3764;48.126;11.594;2024-03-22T02:12:11;19.02;;;13.10;;
7444;SDS011;3764;48.126;11.594;2024-03-22T02:14:38;19.88;;;13.40;;
7444;SDS011;3764;48.126;11.594;2024-03-22T02:17:07;16.90;;;12.88;;
7444;SDS011;3764;48.126;11.594;2024-03-22T02:19:33;24.52;;;13.27;;
7444;SDS011;3764;48.126;11.594;2024-03-22T02:22:01;17.23;;;12.88;;
7444;SDS011;3764;48.126;11.594;2024-03-22T02:24:29;19.75;;;13.65;;
7444;SDS011;3764;48.126;11.594;2024-03-22T02:26:56;19.95;;;13.73;;
7444;SDS011;3764;48.126;11.594;2024-03-22T02:29:22;18.80;;;13.93;;
7444;SDS011;3764;48.126;11.594;2024-03-22T02:31:50;20.10;;;13.82;;
7444;SDS011;3764;48.126;11.594;2024-03-22T02:34:17;20.23;;;14.15;;
7444;SDS011;3764;48.126;11.594;2024-03-22T02:36:44;18.15;;;13.25;;
7444;SDS011;3764;48.126;11.594;2024-03-22T02:39:11;17.98;;;14.18;;
7444;SDS011;3764;48.126;11.594;2024-03-22T02:41:39;22.10;;;14.43;;
7444;SDS011;3764;48.126;11.594;2024-03-22T02:44:06;21.42;;;15.23;;
7444;SDS011;3764;48.126;11.594;2024-03-22T02:46:33;20.30;;;14.90;;
7444;SDS011;3764;48.126;11.594;2024-03-22T02:49:00;20.23;;;13.85;;
7444;SDS011;3764;48.126;11.594;2024-03-22T02:51:27;18.42;;;13.38;;
7444;SDS011;3764;48.126;11.594;2024-03-22T02:53:54;19.73;;;14.05;;
7444;SDS011;3764;48.126;11.594;2024-03-22T02:56:21;20.17;;;15.20;;
7444;SDS011;3764;48.126;11.594;2024-03-22T02:58:50;18.27;;;13.80;;
7444;SDS011;3764;48.126;11.594;2024-03-22T03:01:16;20.38;;;14.57;;
7444;SDS011;3764;48.126;11.594;2024-03-22T03:03:44;19.23;;;12.98;;
7444;SDS011;3764;48.126;11.594;2024-03-22T03:06:10;17.63;;;12.75;;
7444;SDS011;3764;48.126;11.594;2024-03-22T03:08:38;20.33;;;13.77;;
7444;SDS011;3764;48.126;11.594;2024-03-22T03:11:05;18.00;;;13.60;;
7444;SDS011;3764;48.126;11.594;2024-03-22T03:13:32;17.80;;;13.63;;
7444;SDS011;3764;48.126;11.594;2024-03-22T03:16:00;17.55;;;13.00;;
7444;SDS011;3764;48.126;11.594;2024-03-22T03:18:28;20.65;;;14.18;;
7444;SDS011;3764;48.126;11.594;2024-03-22T03:20:56;22.80;;;13.57;;
7444;SDS011;3764;48.126;11.594;2024-03-22T03:23:22;20.98;;;13.35;;
7444;SDS011;3764;48.126;11.594;2024-03-22T03:25:50;17.58;;;12.10;;
7444;SDS011;3764;48.126;11.594;2024-03-22T03:28:16;18.33;;;14.18;;
7444;SDS011;3764;48.126;11.594;2024-03-22T03:30:44;20.15;;;13.50;;
7444;SDS011;3764;48.126;11.594;2024-03-22T03:33:12;18.08;;;13.48;;
7444;SDS011;3764;48.126;11.594;2024-03-22T03:35:39;20.25;;;13.98;;
7444;SDS011;3764;48.126;11.594;2024-03-22T03:38:10;19.98;;;13.95;;
7444;SDS011;3764;48.126;11.594;2024-03-22T03:40:38;21.70;;;14.30;;
7444;SDS011;3764;48.126;11.594;2024-03-22T03:43:04;17.33;;;12.73;;
7444;SDS011;3764;48.126;11.594;2024-03-22T03:45:32;20.85;;;14.75;;
7444;SDS011;3764;48.126;11.594;2024-03-22T03:48:01;19.70;;;13.40;;
7444;SDS011;3764;48.126;11.594;2024-03-22T03:50:30;19.08;;;13.80;;
7444;SDS011;3764;48.126;11.594;2024-03-22T03:52:57;22.02;;;14.10;;
7444;SDS011;3764;48.126;11.594;2024-03-22T03:55:24;19.52;;;14.05;;
7444;SDS011;3764;48.126;11.594;2024-03-22T03:57:50;19.88;;;13.60;;
7444;SDS011;3764;48.126;11.594;2024-03-22T04:00:19;23.70;;;14.82;;
7444;SDS011;3764;48.126;11.594;2024-03-22T04:02:46;20.23;;;14.05;;
7444;SDS011;3764;48.126;11.594;2024-03-22T04:05:16;24.58;;;14.20;;
7444;SDS011;3764;48.126;11.594;2024-03-22T04:07:46;20.23;;;13.88;;
7444;SDS011;3764;48.126;11.594;2024-03-22T04:10:14;20.33;;;13.82;;
7444;SDS011;3764;48.126;11.594;2024-03-22T04:12:40;22.35;;;14.65;;
7444;SDS011;3764;48.126;11.594;2024-03-22T04:15:08;22.15;;;15.65;;
7444;SDS011;3764;48.126;11.594;2024-03-22T04:17:35;24.17;;;15.57;;
7444;SDS011;3764;48.126;11.594;2024-03-22T04:20:03;21.65;;;14.57;;
7444;SDS011;3764;48.126;11.594;2024-03-22T04:22:29;21.05;;;15.02;;
7444;SDS011;3764;48.126;11.594;2024-03-22T04:24:58;25.33;;;14.80;;
7444;SDS011;3764;48.126;11.594;2024-03-22T04:27:25;16.70;;;12.80;;
7444;SDS011;3764;48.126;11.594;2024-03-22T04:29:52;20.80;;;14.15;;
7444;SDS011;3764;48.126;11.594;2024-03-22T04:32:19;25.33;;;15.75;;
7444;SDS011;3764;48.126;11.594;2024-03-22T04:34:46;19.95;;;14.38;;
7444;SDS011;3764;48.126;11.594;2024-03-22T04:37:13;21.15;;;14.43;;
7444;SDS011;3764;48.126;11.594;2024-03-22T04:39:40;23.90;;;15.73;;
7444;SDS011;3764;48.126;11.594;2024-03-22T04:42:09;21.02;;;14.95;;
7444;SDS011;3764;48.126;11.594;2024-03-22T04:44:36;21.15;;;14.30;;
7444;SDS011;3764;48.126;11.594;2024-03-22T04:47:04;19.88;;;13.80;;
7444;SDS011;3764;48.126;11.594;2024-03-22T04:49:31;21.48;;;14.60;;
7444;SDS011;3764;48.126;11.594;2024-03-22T04:51:58;20.20;;;14.40;;
7444;SDS011;3764;48.126;11.594;2024-03-22T04:54:24;22.15;;;14.00;;
7444;SDS011;3764;48.126;11.594;2024-03-22T04:56:52;20.17;;;13.55;;
7444;SDS011;3764;48.126;11.594;2024-03-22T04:59:20;20.95;;;14.82;;
7444;SDS011;3764;48.126;11.594;2024-03-22T05:01:47;20.30;;;13.18;;
7444;SDS011;3764;48.126;11.594;2024-03-22T05:04:13;20.63;;;12.40;;
7444;SDS011;3764;48.126;11.594;2024-03-22T05:06:41;19.85;;;14.23;;
7444;SDS011;3764;48.126;11.594;2024-03-22T05:09:07;19.05;;;13.00;;
7444;SDS011;3764;48.126;11.594;2024-03-22T05:11:35;18.35;;;13.75;;
7444;SDS011;3764;48.126;11.594;2024-03-22T05:14:01;19.73;;;13.23;;
7444;SDS011;3764;48.126;11.594;2024-03-22T05:16:30;17.35;;;12.05;;
7444;SDS011;3764;48.126;11.594;2024-03-22T05:18:57;19.15;;;13.98;;
7444;SDS011;3764;48.126;11.594;2024-03-22T05:21:24;15.65;;;12.32;;
7444;SDS011;3764;48.126;11.594;2024-03-22T05:23:51;16.83;;;11.48;;
7444;SDS011;3764;48.126;11.594;2024-03-22T05:26:18;17.83;;;12.45;;
7444;SDS011;3764;48.126;11.594;2024-03-22T05:28:46;17.75;;;11.82;;
7444;SDS011;3764;48.126;11.594;2024-03-22T05:31:13;15.95;;;12.13;;
7444;SDS011;3764;48.126;11.594;2024-03-22T05:33:41;16.83;;;11.10;;
7444;SDS011;3764;48.126;11.594;2024-03-22T05:36:08;16.90;;;12.32;;
7444;SDS011;3764;48.126;11.594;2024-03-22T05:38:35;15.75;;;12.07;;
7444;SDS011;3764;48.126;11.594;2024-03-22T05:41:03;17.67;;;12.50;;
7444;SDS011;3764;48.126;11.594;2024-03-22T05:43:30;16.20;;;11.68;;
7444;SDS011;3764;48.126;11.594;2024-03-22T05:45:57;16.70;;;11.65;;
7444;SDS011;3764;48.126;11.594;2024-03-22T05:48:23;16.35;;;11.60;;
7444;SDS011;3764;48.126;11.594;2024-03-22T05:50:52;16.30;;;10.80;;
7444;SDS011;3764;48.126;11.594;2024-03-22T05:53:19;18.08;;;11.30;;
7444;SDS011;3764;48.126;11.594;2024-03-22T05:55:46;15.48;;;10.98;;
7444;SDS011;3764;48.126;11.594;2024-03-22T05:58:12;17.00;;;11.63;;
7444;SDS011;3764;48.126;11.594;2024-03-22T06:00:40;16.92;;;11.38;;
7444;SDS011;3764;48.126;11.594;2024-03-22T06:03:06;15.57;;;11.75;;
7444;SDS011;3764;48.126;11.594;2024-03-22T06:05:34;14.48;;;11.07;;
7444;SDS011;3764;48.126;11.594;2024-03-22T06:08:02;14.52;;;10.15;;
7444;SDS011;3764;48.126;11.594;2024-03-22T06:10:29;14.02;;;11.38;;
7444;SDS011;3764;48.126;11.594;2024-03-22T06:12:56;17.08;;;11.75;;
7444;SDS011;3764;48.126;11.594;2024-03-22T06:15:23;13.73;;;9.80;;
7444;SDS011;3764;48.126;11.594;2024-03-22T06:17:50;11.00;;;8.80;;
7444;SDS011;3764;48.126;11.594;2024-03-22T06:20:18;14.85;;;10.95;;
7444;SDS011;3764;48.126;11.594;2024-03-22T06:22:44;14.48;;;9.77;;
7444;SDS011;3764;48.126;11.594;2024-03-22T06:25:13;15.35;;;10.43;;
7444;SDS011;3764;48.126;11.594;2024-03-22T06:27:40;15.32;;;11.43;;
7444;SDS011;3764;48.126;11.594;2024-03-22T06:30:07;12.70;;;8.77;;
7444;SDS011;3764;48.126;11.594;2024-03-22T06:32:34;17.30;;;12.25;;
7444;SDS011;3764;48.126;11.594;2024-03-22T06:35:02;15.65;;;10.98;;
7444;SDS011;3764;48.126;11.594;2024-03-22T06:37:28;15.95;;;9.43;;
7444;SDS011;3764;48.126;11.594;2024-03-22T06:39:56;17.23;;;11.65;;
7444;SDS011;3764;48.126;11.594;2024-03-22T06:42:25;15.68;;;10.93;;
7444;SDS011;3764;48.126;11.594;2024-03-22T06:44:52;14.77;;;10.57;;
7444;SDS011;3764;48.126;11.594;2024-03-22T06:47:19;14.70;;;11.68;;
7444;SDS011;3764;48.126;11.594;2024-03-22T06:49:47;15.50;;;10.93;;
7444;SDS011;3764;48.126;11.594;2024-03-22T06:52:13;14.02;;;10.07;;
7444;SDS011;3764;48.126;11.594;2024-03-22T06:54:41;16.60;;;10.82;;
7444;SDS011;3764;48.126;11.594;2024-03-22T06:57:07;14.52;;;10.65;;
7444;SDS011;3764;48.126;11.594;2024-03-22T06:59:36;12.63;;;10.32;;
7444;SDS011;3764;48.126;11.594;2024-03-22T07:02:03;13.88;;;10.13;;
7444;SDS011;3764;48.126;11.594;2024-03-22T07:04:31;14.73;;;10.65;;
7444;SDS011;3764;48.126;11.594;2024-03-22T07:06:57;14.10;;;9.10;;
7444;SDS011;3764;48.126;11.594;2024-03-22T07:09:25;13.85;;;10.35;;
7444;SDS011;3764;48.126;11.594;2024-03-22T07:11:53;13.52;;;9.15;;
7444;SDS011;3764;48.126;11.594;2024-03-22T07:14:21;14.05;;;10.10;;
7444;SDS011;3764;48.126;11.594;2024-03-22T07:16:51;12.02;;;9.63;;
7444;SDS011;3764;48.126;11.594;2024-03-22T07:19:19;12.30;;;8.45;;
7444;SDS011;3764;48.126;11.594;2024-03-22T07:21:46;14.27;;;8.98;;
7444;SDS011;3764;48.126;11.594;2024-03-22T07:24:13;12.15;;;9.65;;
7444;SDS011;3764;48.126;11.594;2024-03-22T07:26:40;13.18;;;9.32;;
7444;SDS011;3764;48.126;11.594;2024-03-22T07:29:07;12.00;;;9.27;;
7444;SDS011;3764;48.126;11.594;2024-03-22T07:31:33;12.75;;;9.25;;
7444;SDS011;3764;48.126;11.594;2024-03-22T07:34:02;12.82;;;9.18;;
7444;SDS011;3764;48.126;11.594;2024-03-22T07:36:30;12.95;;;8.80;;
7444;SDS011;3764;48.126;11.594;2024-03-22T07:38:57;13.38;;;9.32;;
7444;SDS011;3764;48.126;11.594;2024-03-22T07:41:23;12.88;;;9.52;;
7444;SDS011;3764;48.126;11.594;2024-03-22T07:43:51;13.02;;;9.95;;
7444;SDS011;3764;48.126;11.594;2024-03-22T07:46:17;12.65;;;10.25;;
7444;SDS011;3764;48.126;11.594;2024-03-22T07:48:45;14.35;;;10.05;;
7444;SDS011;3764;48.126;11.594;2024-03-22T07:51:12;13.63;;;9.07;;
7444;SDS011;3764;48.126;11.594;2024-03-22T07:53:40;10.88;;;9.50;;
7444;SDS011;3764;48.126;11.594;2024-03-22T07:56:06;15.48;;;8.73;;
7444;SDS011;3764;48.126;11.594;2024-03-22T07:58:33;14.20;;;10.25;;
7444;SDS011;3764;48.126;11.594;2024-03-22T08:01:00;18.10;;;10.65;;
7444;SDS011;3764;48.126;11.594;2024-03-22T08:03:27;13.50;;;9.35;;
7444;SDS011;3764;48.126;11.594;2024-03-22T08:05:54;10.57;;;9.13;;
7444;SDS011;3764;48.126;11.594;2024-03-22T08:08:23;10.27;;;8.55;;
7444;SDS011;3764;48.126;11.594;2024-03-22T08:10:50;10.88;;;9.30;;
7444;SDS011;3764;48.126;11.594;2024-03-22T08:13:17;9.00;;;7.93;;
7444;SDS011;3764;48.126;11.594;2024-03-22T08:15:44;15.68;;;9.23;;
7444;SDS011;3764;48.126;11.594;2024-03-22T08:18:11;12.10;;;10.02;;
7444;SDS011;3764;48.126;11.594;2024-03-22T08:20:38;12.98;;;8.85;;
7444;SDS011;3764;48.126;11.594;2024-03-22T08:23:06;12.50;;;8.13;;
7444;SDS011;3764;48.126;11.594;2024-03-22T08:25:33;10.50;;;8.60;;
7444;SDS011;3764;48.126;11.594;2024-03-22T08:28:02;11.02;;;8.75;;
7444;SDS011;3764;48.126;11.594;2024-03-22T08:30:28;11.05;;;8.60;;
7444;SDS011;3764;48.126;11.594;2024-03-22T08:32:56;13.77;;;9.05;;
7444;SDS011;3764;48.126;11.594;2024-03-22T08:35:22;11.45;;;8.38;;
7444;SDS011;3764;48.126;11.594;2024-03-22T08:37:49;11.30;;;8.30;;
7444;SDS011;3764;48.126;11.594;2024-03-22T08:40:16;10.10;;;8.15;;
7444;SDS011;3764;48.126;11.594;2024-03-22T08:42:45;12.20;;;8.95;;
7444;SDS011;3764;48.126;11.594;2024-03-22T08:45:11;8.73;;;7.50;;
7444;SDS011;3764;48.126;11.594;2024-03-22T08:47:38;10.25;;;8.75;;
7444;SDS011;3764;48.126;11.594;2024-03-22T08:50:06;9.88;;;8.25;;
7444;SDS011;3764;48.126;11.594;2024-03-22T08:52:34;10.75;;;8.77;;
7444;SDS011;3764;48.126;11.594;2024-03-22T08:55:01;9.50;;;7.32;;
7444;SDS011;3764;48.126;11.594;2024-03-22T08:57:29;7.85;;;6.55;;
7444;SDS011;3764;48.126;11.594;2024-03-22T08:59:57;9.68;;;7.03;;
7444;SDS011;3764;48.126;11.594;2024-03-22T09:02:25;11.40;;;7.32;;
7444;SDS011;3764;48.126;11.594;2024-03-22T09:04:52;7.72;;;6.93;;
7444;SDS011;3764;48.126;11.594;2024-03-22T09:07:19;9.52;;;7.32;;
7444;SDS011;3764;48.126;11.594;2024-03-22T09:09:46;10.63;;;7.95;;
7444;SDS011;3764;48.126;11.594;2024-03-22T09:12:13;8.93;;;6.50;;
7444;SDS011;3764;48.126;11.594;2024-03-22T09:14:39;10.45;;;7.43;;
7444;SDS011;3764;48.126;11.594;2024-03-22T09:17:08;9.50;;;8.23;;
7444;SDS011;3764;48.126;11.594;2024-03-22T09:19:35;9.07;;;7.85;;
7444;SDS011;3764;48.126;11.594;2024-03-22T09:22:02;9.48;;;7.43;;
7444;SDS011;3764;48.126;11.594;2024-03-22T09:24:29;12.13;;;8.10;;
7444;SDS011;3764;48.126;11.594;2024-03-22T09:26:56;7.72;;;6.70;;
7444;SDS011;3764;48.126;11.594;2024-03-22T09:29:24;8.10;;;7.22;;
7444;SDS011;3764;48.126;11.594;2024-03-22T09:31:51;10.70;;;6.57;;
7444;SDS011;3764;48.126;11.594;2024-03-22T09:34:19;9.10;;;7.53;;
7444;SDS011;3764;48.126;11.594;2024-03-22T09:36:46;8.00;;;7.00;;
7444;SDS011;3764;48.126;11.594;2024-03-22T09:39:13;10.85;;;6.50;;
7444;SDS011;3764;48.126;11.594;2024-03-22T09:41:41;8.32;;;7.15;;
7444;SDS011;3764;48.126;11.594;2024-03-22T09:44:10;7.40;;;6.35;;
7444;SDS011;3764;48.126;11.594;2024-03-22T09:46:40;6.13;;;5.43;;
7444;SDS011;3764;48.126;11.594;2024-03-22T09:49:09;9.00;;;5.60;;
7444;SDS011;3764;48.126;11.594;2024-03-22T09:51:38;7.15;;;5.43;;
7444;SDS011;3764;48.126;11.594;2024-03-22T09:54:05;8.52;;;6.22;;
7444;SDS011;3764;48.126;11.594;2024-03-22T09:56:33;7.60;;;5.60;;
7444;SDS011;3764;48.126;11.594;2024-03-22T09:59:00;9.52;;;5.72;;
7444;SDS011;3764;48.126;11.594;2024-03-22T10:01:28;6.68;;;6.07;;
7444;SDS011;3764;48.126;11.594;2024-03-22T10:03:55;8.10;;;6.07;;
7444;SDS011;3764;48.126;11.594;2024-03-22T10:06:22;8.50;;;6.05;;
7444;SDS011;3764;48.126;11.594;2024-03-22T10:08:50;7.40;;;5.85;;
7444;SDS011;3764;48.126;11.594;2024-03-22T10:11:18;6.70;;;5.97;;
7444;SDS011;3764;48.126;11.594;2024-03-22T10:13:44;8.45;;;5.68;;
7444;SDS011;3764;48.126;11.594;2024-03-22T10:16:16;6.80;;;5.60;;
7444;SDS011;3764;48.126;11.594;2024-03-22T10:18:42;6.88;;;5.63;;
7444;SDS011;3764;48.126;11.594;2024-03-22T10:21:10;6.07;;;5.05;;
7444;SDS011;3764;48.126;11.594;2024-03-22T10:23:37;6.90;;;6.18;;
7444;SDS011;3764;48.126;11.594;2024-03-22T10:26:05;7.63;;;6.75;;
7444;SDS011;3764;48.126;11.594;2024-03-22T10:28:35;7.97;;;6.22;;
7444;SDS011;3764;48.126;11.594;2024-03-22T10:31:10;6.20;;;5.55;;
7444;SDS011;3764;48.126;11.594;2024-03-22T10:33:37;7.88;;;5.70;;
7444;SDS011;3764;48.126;11.594;2024-03-22T10:36:07;6.53;;;5.75;;
7444;SDS011;3764;48.126;11.594;2024-03-22T10:38:33;6.75;;;5.90;;
7444;SDS011;3764;48.126;11.594;2024-03-22T10:41:06;9.43;;;6.60;;
7444;SDS011;3764;48.126;11.594;2024-03-22T10:43:32;6.68;;;5.97;;
7444;SDS011;3764;48.126;11.594;2024-03-22T10:46:01;6.60;;;6.00;;
7444;SDS011;3764;48.126;11.594;2024-03-22T10:48:29;10.95;;;6.45;;
7444;SDS011;3764;48.126;11.594;2024-03-22T10:50:59;4.80;;;4.30;;
7444;SDS011;3764;48.126;11.594;2024-03-22T10:53:26;6.22;;;5.63;;
7444;SDS011;3764;48.126;11.594;2024-03-22T10:55:58;6.60;;;5.20;;
7444;SDS011;3764;48.126;11.594;2024-03-22T10:58:27;8.38;;;5.22;;
7444;SDS011;3764;48.126;11.594;2024-03-22T11:00:55;5.90;;;5.20;;
7444;SDS011;3764;48.126;11.594;2024-03-22T11:03:22;6.63;;;5.93;;
7444;SDS011;3764;48.126;11.594;2024-03-22T11:05:53;6.57;;;5.97;;
7444;SDS011;3764;48.126;11.594;2024-03-22T11:08:25;12.68;;;5.35;;
7444;SDS011;3764;48.126;11.594;2024-03-22T11:10:53;7.03;;;5.60;;
7444;SDS011;3764;48.126;11.594;2024-03-22T11:13:21;6.05;;;5.45;;
7444;SDS011;3764;48.126;11.594;2024-03-22T11:15:50;6.97;;;5.95;;
7444;SDS011;3764;48.126;11.594;2024-03-22T11:18:17;9.70;;;5.32;;
7444;SDS011;3764;48.126;11.594;2024-03-22T11:20:45;8.52;;;6.18;;
7444;SDS011;3764;48.126;11.594;2024-03-22T11:23:11;10.48;;;5.80;;
7444;SDS011;3764;48.126;11.594;2024-03-22T11:25:39;6.10;;;4.82;;
7444;SDS011;3764;48.126;11.594;2024-03-22T11:28:05;6.07;;;5.47;;
7444;SDS011;3764;48.126;11.594;2024-03-22T11:30:33;5.28;;;4.78;;
7444;SDS011;3764;48.126;11.594;2024-03-22T11:33:02;4.75;;;4.25;;
7444;SDS011;3764;48.126;11.594;2024-03-22T11:35:30;6.40;;;5.47;;
7444;SDS011;3764;48.126;11.594;2024-03-22T11:37:58;8.20;;;6.07;;
7444;SDS011;3764;48.126;11.594;2024-03-22T11:40:26;6.90;;;6.20;;
7444;SDS011;3764;48.126;11.594;2024-03-22T11:42:54;6.10;;;5.50;;
7444;SDS011;3764;48.126;11.594;2024-03-22T11:45:22;4.70;;;4.30;;
7444;SDS011;3764;48.126;11.594;2024-03-22T11:47:50;5.13;;;4.63;;
7444;SDS011;3764;48.126;11.594;2024-03-22T11:50:19;4.90;;;4.50;;
7444;SDS011;3764;48.126;11.594;2024-03-22T11:52:45;12.07;;;10.73;;
7444;SDS011;3764;48.126;11.594;2024-03-22T11:55:13;7.10;;;5.97;;
7444;SDS011;3764;48.126;11.594;2024-03-22T11:57:40;9.30;;;6.53;;
7444;SDS011;3764;48.126;11.594;2024-03-22T12:00:08;7.73;;;6.50;;
7444;SDS011;3764;48.126;11.594;2024-03-22T12:02:35;11.00;;;6.00;;
7444;SDS011;3764;48.126;11.594;2024-03-22T12:05:03;8.77;;;6.43;;
7444;SDS011;3764;48.126;11.594;2024-03-22T12:07:32;6.33;;;5.73;;
7444;SDS011;3764;48.126;11.594;2024-03-22T12:10:00;6.20;;;5.60;;
7444;SDS011;3764;48.126;11.594;2024-03-22T12:12:27;6.23;;;4.57;;
7444;SDS011;3764;48.126;11.594;2024-03-22T12:14:54;7.17;;;5.50;;
7444;SDS011;3764;48.126;11.594;2024-03-22T12:17:20;7.90;;;5.70;;
7444;SDS011;3764;48.126;11.594;2024-03-22T12:19:48;8.07;;;6.07;;
7444;SDS011;3764;48.126;11.594;2024-03-22T12:22:14;7.03;;;6.33;;
7444;SDS011;3764;48.126;11.594;2024-03-22T12:24:43;6.73;;;6.00;;
7444;SDS011;3764;48.126;11.594;2024-03-22T12:27:10;8.20;;;5.70;;
7444;SDS011;3764;48.126;11.594;2024-03-22T12:29:37;5.17;;;4.40;;
7444;SDS011;3764;48.126;11.594;2024-03-22T12:32:04;6.63;;;5.93;;
7444;SDS011;3764;48.126;11.594;2024-03-22T12:34:32;6.07;;;5.57;;
7444;SDS011;3764;48.126;11.594;2024-03-22T12:36:58;8.00;;;6.80;;
7444;SDS011;3764;48.126;11.594;2024-03-22T12:39:26;7.00;;;6.30;;
7444;SDS011;3764;48.126;11.594;2024-03-22T12:41:53;7.17;;;5.40;;
7444;SDS011;3764;48.126;11.594;2024-03-22T12:44:21;5.77;;;5.17;;
7444;SDS011;3764;48.126;11.594;2024-03-22T12:46:47;7.53;;;5.95;;
7444;SDS011;3764;48.126;11.594;2024-03-22T12:49:16;9.00;;;5.67;;
7444;SDS011;3764;48.126;11.594;2024-03-22T12:51:42;6.82;;;5.80;;
7444;SDS011;3764;48.126;11.594;2024-03-22T12:54:10;7.95;;;5.88;;
7444;SDS011;3764;48.126;11.594;2024-03-22T12:56:38;6.43;;;5.75;;
7444;SDS011;3764;48.126;11.594;2024-03-22T12:59:07;9.48;;;7.03;;
7444;SDS011;3764;48.126;11.594;2024-03-22T13:01:33;7.03;;;6.32;;
7444;SDS011;3764;48.126;11.594;2024-03-22T13:04:02;7.50;;;5.72;;
7444;SDS011;3764;48.126;11.594;2024-03-22T13:06:28;7.97;;;6.00;;
7444;SDS011;3764;48.126;11.594;2024-03-22T13:08:55;8.75;;;5.85;;
7444;SDS011;3764;48.126;11.594;2024-03-22T13:11:22;6.60;;;6.00;;
7444;SDS011;3764;48.126;11.594;2024-03-22T13:13:50;5.00;;;4.50;;
7444;SDS011;3764;48.126;11.594;2024-03-22T13:16:19;7.38;;;5.78;;
7444;SDS011;3764;48.126;11.594;2024-03-22T13:18:46;7.40;;;5.75;;
7444;SDS011;3764;48.126;11.594;2024-03-22T13:21:13;6.88;;;6.13;;
7444;SDS011;3764;48.126;11.594;2024-03-22T13:23:40;8.07;;;7.10;;
7444;SDS011;3764;48.126;11.594;2024-03-22T13:26:06;11.20;;;5.00;;
7444;SDS011;3764;48.126;11.594;2024-03-22T13:28:34;5.57;;;4.93;;
7444;SDS011;3764;48.126;11.594;2024-03-22T13:31:01;6.28;;;5.50;;
7444;SDS011;3764;48.126;11.594;2024-03-22T13:33:32;5.63;;;5.13;;
7444;SDS011;3764;48.126;11.594;2024-03-22T13:35:59;6.23;;;4.23;;
7444;SDS011;3764;48.126;11.594;2024-03-22T13:38:27;7.10;;;5.20;;
7444;SDS011;3764;48.126;11.594;2024-03-22T13:40:54;4.88;;;4.47;;
7444;SDS011;3764;48.126;11.594;2024-03-22T13:43:21;3.93;;;3.63;;
7444;SDS011;3764;48.126;11.594;2024-03-22T13:45:48;5.88;;;3.90;;
7444;SDS011;3764;48.126;11.594;2024-03-22T13:48:20;4.00;;;3.43;;
7444;SDS011;3764;48.126;11.594;2024-03-22T13:50:51;5.40;;;4.10;;
7444;SDS011;3764;48.126;11.594;2024-03-22T13:53:19;5.07;;;3.50;;
7444;SDS011;3764;48.126;11.594;2024-03-22T13:55:47;4.05;;;3.63;;
7444;SDS011;3764;48.126;11.594;2024-03-22T13:58:14;3.57;;;2.93;;
7444;SDS011;3764;48.126;11.594;2024-03-22T14:00:41;3.50;;;3.20;;
7444;SDS011;3764;48.126;11.594;2024-03-22T14:03:08;5.70;;;2.90;;
7444;SDS011;3764;48.126;11.594;2024-03-22T14:05:35;5.35;;;3.63;;
7444;SDS011;3764;48.126;11.594;2024-03-22T14:08:04;6.90;;;3.60;;
7444;SDS011;3764;48.126;11.594;2024-03-22T14:10:31;4.40;;;3.13;;
7444;SDS011;3764;48.126;11.594;2024-03-22T14:12:58;4.00;;;3.38;;
7444;SDS011;3764;48.126;11.594;2024-03-22T14:15:25;5.07;;;3.50;;
7444;SDS011;3764;48.126;11.594;2024-03-22T14:17:56;4.18;;;2.97;;
7444;SDS011;3764;48.126;11.594;2024-03-22T14:20:23;3.17;;;2.85;;
7444;SDS011;3764;48.126;11.594;2024-03-22T14:22:50;3.22;;;2.88;;
7444;SDS011;3764;48.126;11.594;2024-03-22T14:25:19;5.72;;;3.22;;
7444;SDS011;3764;48.126;11.594;2024-03-22T14:27:47;3.77;;;3.37;;
7444;SDS011;3764;48.126;11.594;2024-03-22T14:30:14;2.97;;;2.50;;
7444;SDS011;3764;48.126;11.594;2024-03-22T14:32:41;4.93;;;3.20;;
7444;SDS011;3764;48.126;11.594;2024-03-22T14:35:08;3.40;;;2.97;;
7444;SDS011;3764;48.126;11.594;2024-03-22T14:37:35;4.38;;;3.13;;
7444;SDS011;3764;48.126;11.594;2024-03-22T14:40:02;3.67;;;2.30;;
7444;SDS011;3764;48.126;11.594;2024-03-22T14:42:32;4.27;;;2.87;;
7444;SDS011;3764;48.126;11.594;2024-03-22T14:44:58;3.97;;;3.38;;
7444;SDS011;3764;48.126;11.594;2024-03-22T14:47:26;5.77;;;2.90;;